Ship Status Report: callsign AMOUK29

sailwx.info

Track history (hours):
 
Tides and Currents Weather Stations Pressure Air Temp Water Temp Dewpoint Dewpoint Depression Visibility Wind Speed Wind Dir Waves Ship Positions

Callsign AMOUK29 (name unknown)

Last reported at 2015-Jul-31 16:00 UTC. Time now 2015-Jul-31 23:28 UTC.
Position N 54°36' W 005°54'.

Barometer 1011.9 mb
Air temperature 13.4 ° C
Dewpoint 10.2 ° C

Date/timePositionNaut miles runAvg speedWind from/ knotsBaromVisibWave heightAir tempDewpointWater temp
2015-Jul-31 16:00N 54°36' W 005°54'0 0.0 1011.9 13.410.2
2015-Jul-31 14:00N 54°36' W 005°54'0 0.0 1013.2 14.2 9.8
2015-Jul-31 13:00N 54°36' W 005°54'0 0.0 1013.4 14.7 8.6
2015-Jul-31 10:00N 54°36' W 005°54'0 0.0 1014.4 14.2 8.1
2015-Jul-31 09:00N 54°36' W 005°54'0 0.0 1015.1 13.3 8.4
2015-Jul-31 08:00N 54°36' W 005°54'0 0.0 1015.6 12.7 8.4
2015-Jul-31 07:00N 54°36' W 005°54'0 0.0 1016.1 12.1 8.7
2015-Jul-31 04:00N 54°36' W 005°54'0 0.0 1017.3 11.9 9.3
2015-Jul-31 00:00N 54°36' W 005°54'0 0.0 1018.6 11.910.3
2015-Jul-30 16:00N 54°36' W 005°54'0 0.0 1020.3 16.4 6.5
2015-Jul-30 14:00N 54°36' W 005°54'0 0.0 1020.3 16.2 5.2
2015-Jul-30 12:00N 54°36' W 005°54'0 0.0 1020.4 14.3 5.0
2015-Jul-30 08:00N 54°36' W 005°54'0 0.0 1019.8 11.7 6.8
2015-Jul-30 05:00N 54°36' W 005°54'0 0.0 1019.5 9.9 6.0
2015-Jul-30 04:00N 54°36' W 005°54'0 0.0 1019.4 10.1 6.0
2015-Jul-30 02:00N 54°36' W 005°54'0 0.0 1019.0 10.4 5.2
2015-Jul-30 01:00N 54°36' W 005°54'0 0.0 1018.8 10.5 5.6
2015-Jul-29 22:00N 54°36' W 005°54'0 0.0 1017.6 11.8 7.0
2015-Jul-29 20:00N 54°36' W 005°54'0 0.0 1016.6 12.1 6.5
2015-Jul-29 17:00N 54°36' W 005°54'0 0.0 1015.7 13.6 6.3
2015-Jul-29 14:00N 54°36' W 005°54'0 0.0 1014.3 14.6 7.5
2015-Jul-29 08:00N 54°36' W 005°54'0 0.0 1011.5 11.8 8.4
2015-Jul-29 07:00N 54°36' W 005°54'0 0.0 1011.0 11.0 8.3
2015-Jul-29 03:00N 54°36' W 005°54'0 0.0 1009.7 10.8 8.5
2015-Jul-28 22:00N 54°36' W 005°54'0 0.0 1006.9 11.7 9.6
2015-Jul-28 18:00N 54°36' W 005°54'0 0.0 1005.4 14.2 9.1
2015-Jul-28 16:00N 54°36' W 005°54'0 0.0 1005.6 13.4 8.3
2015-Jul-28 15:00N 54°36' W 005°54'0 0.0 1005.4 14.6 9.0
2015-Jul-28 11:00N 54°36' W 005°54'0 0.0 1004.9 12.5 8.2
2015-Jul-28 09:00N 54°36' W 005°54'0 0.0 1004.2 12.3 9.0
2015-Jul-28 07:00N 54°36' W 005°54'0 0.0 1003.9 11.0 9.0
2015-Jul-28 04:00N 54°36' W 005°54'0 0.0 1003.1 10.7 9.1
2015-Jul-28 03:00N 54°36' W 005°54'0 0.0 1002.9 11.1 9.5
2015-Jul-28 02:00N 54°36' W 005°54'0 0.0 1002.7 11.1 9.8
2015-Jul-28 01:00N 54°36' W 005°54'0 0.0 1002.3 11.510.1
2015-Jul-27 20:00N 54°36' W 005°54'0 0.0 1000.3 12.511.1
2015-Jul-27 17:00N 54°36' W 005°54'0 0.0 999.2 13.212.0
2015-Jul-27 16:00N 54°36' W 005°54'0 0.0 998.9 13.512.4
2015-Jul-27 14:00N 54°36' W 005°54'0 0.0 998.6 13.012.1
2015-Jul-27 12:00N 54°36' W 005°54'0 0.0 997.9 12.811.6
2015-Jul-27 08:00N 54°36' W 005°54'0 0.0 996.8 12.911.2
2015-Jul-27 05:00N 54°36' W 005°54'0 0.0 995.8 12.911.1
2015-Jul-27 03:00N 54°36' W 005°54'0 0.0 995.6 12.811.2
2015-Jul-27 02:00N 54°36' W 005°54'0 0.0 995.5 12.511.0
2015-Jul-27 00:00N 54°36' W 005°54'0 0.0 995.1 12.311.1
2015-Jul-26 23:00N 54°36' W 005°54'0 0.0 995.0 12.311.2
2015-Jul-26 22:00N 54°36' W 005°54'0 0.0 994.7 12.311.0
2015-Jul-26 21:00N 54°36' W 005°54'0 0.0 994.5 12.611.3
2015-Jul-26 20:00N 54°36' W 005°54'0 0.0 994.3 12.911.5
2015-Jul-26 18:00N 54°36' W 005°54'0 0.0 994.8 12.611.1
2015-Jul-26 17:00N 54°36' W 005°54'0 0.0 995.3 12.410.9
2015-Jul-26 16:00N 54°36' W 005°54'0 0.0 995.9 12.610.1
2015-Jul-26 15:00N 54°36' W 005°54'0 0.0 996.5 12.210.5
2015-Jul-26 14:00N 54°36' W 005°54'0 0.0 997.2 12.210.7
2015-Jul-26 13:00N 54°36' W 005°54'0 0.0 998.7 11.810.0
2015-Jul-26 10:00N 54°36' W 005°54'0 0.0 1001.9 11.6 9.6
2015-Jul-26 09:00N 54°36' W 005°54'0 0.0 1002.2 11.9 9.6
2015-Jul-26 07:00N 54°36' W 005°54'0 0.0 1004.4 12.6 9.8
2015-Jul-26 02:00N 54°36' W 005°54'0 0.0 1010.0 11.4 9.8
2015-Jul-26 01:00N 54°36' W 005°54'0 0.0 1011.1 12.4 9.4
2015-Jul-25 23:00N 54°36' W 005°54'0 0.0 1013.4 12.3 7.4
2015-Jul-25 22:00N 54°36' W 005°54'0 0.0 1014.3 13.2 7.2
2015-Jul-25 18:00N 54°36' W 005°54'0 0.0 1015.2 14.1 7.6
2015-Jul-25 17:00N 54°36' W 005°54'0 0.0 1015.5 16.1 7.8
2015-Jul-25 12:00N 54°36' W 005°54'0 0.0 1016.1 15.1 5.5
2015-Jul-25 11:00N 54°36' W 005°54'0 0.0 1016.3 15.3 5.8
2015-Jul-25 10:00N 54°36' W 005°54'0 0.0 1016.2 14.5 5.3
2015-Jul-25 09:00N 54°36' W 005°54'0 0.0 1016.2 13.1 6.9
2015-Jul-25 08:00N 54°36' W 005°54'0 0.0 1015.9 12.6 7.4
2015-Jul-25 07:00N 54°36' W 005°54'0 0.0 1015.8 11.2 7.1
2015-Jul-25 06:00N 54°36' W 005°54'0 0.0 1015.6 10.7 7.1
2015-Jul-25 03:00N 54°36' W 005°54'0 0.0 1014.8 10.6 6.8
2015-Jul-24 22:00N 54°36' W 005°54'0 0.0 1014.7 11.9 7.1
2015-Jul-24 20:00N 54°36' W 005°54'0 0.0 1013.7 13.6 7.1
2015-Jul-23 18:00N 54°36' W 005°54'0 0.0 1013.6 16.2 6.5
2015-Jul-23 16:00N 54°36' W 005°54'0 0.0 1013.5 16.6 5.7
2015-Jul-23 15:00N 54°36' W 005°54'0 0.0 1013.8 16.2 5.7
2015-Jul-23 14:00N 54°36' W 005°54'0 0.0 1014.0 15.9 6.9
2015-Jul-23 13:00N 54°36' W 005°54'0 0.0 1014.2 15.5 6.0
2015-Jul-23 11:00N 54°36' W 005°54'0 0.0 1014.4 15.5 6.2
2015-Jul-23 10:00N 54°36' W 005°54'0 0.0 1014.8 14.3 6.9
2015-Jul-23 09:00N 54°36' W 005°54'0 0.0 1014.8 14.1 7.4
2015-Jul-23 06:00N 54°36' W 005°54'0 0.0 1014.7 10.4 7.6
2015-Jul-23 04:00N 54°36' W 005°54'0 0.0 1014.3 10.0 7.5
2015-Jul-23 01:00N 54°36' W 005°54'0 0.0 1014.6 11.0 7.9
2015-Jul-22 20:00N 54°36' W 005°54'0 0.0 1014.0 14.1 7.4
2015-Jul-22 19:00N 54°36' W 005°54'0 0.0 1013.7 15.7 7.6
2015-Jul-22 15:00N 54°36' W 005°54'9 2.3 1013.2 15.6 6.6
2015-Jul-22 11:00N 54°42' W 005°42'1212.5 1012.4 13.3 7.8
2015-Jul-22 10:00N 54°54' W 005°48'38 9.6 1012.3 13.1 7.4
2015-Jul-22 06:00N 55°24' W 006°30'24 7.9 1011.0 12.0 8.8
2015-Jul-22 03:00N 55°36' W 007°06'27 9.0 1010.6 12.5 8.2
2015-Jul-22 00:00N 55°36' W 007°54'1010.2 1010.6 12.7 7.8
2015-Jul-21 23:00N 55°36' W 008°12'6 6.0 1010.4 12.5 7.8
2015-Jul-21 22:00N 55°42' W 008°12'10 5.1 1009.3 12.3 8.2
2015-Jul-21 20:00N 55°42' W 007°54'30 7.6 1008.5 12.4 7.7
2015-Jul-21 16:00N 55°42' W 007°00'   1007.4 12.5 8.8
Track history (hours):
 
Tides and Currents Weather Stations Pressure Air Temp Water Temp Dewpoint Dewpoint Depression Visibility Wind Speed Wind Dir Waves Ship Positions

Callsign AMOUK29 (name unknown)

Last reported at 2015-Jul-31 16:00 UTC. Time now 2015-Jul-31 23:28 UTC.
Position N 54°36' W 005°54'.

Barometer 1011.9 mb
Air temperature 13.4 ° C
Dewpoint 10.2 ° C

Date/timePositionNaut miles runAvg speedWind from/ knotsBaromVisibWave heightAir tempDewpointWater temp
2015-Jul-31 16:00N 54°36' W 005°54'0 0.0 1011.9 13.410.2
2015-Jul-31 14:00N 54°36' W 005°54'0 0.0 1013.2 14.2 9.8
2015-Jul-31 13:00N 54°36' W 005°54'0 0.0 1013.4 14.7 8.6
2015-Jul-31 10:00N 54°36' W 005°54'0 0.0 1014.4 14.2 8.1
2015-Jul-31 09:00N 54°36' W 005°54'0 0.0 1015.1 13.3 8.4
2015-Jul-31 08:00N 54°36' W 005°54'0 0.0 1015.6 12.7 8.4
2015-Jul-31 07:00N 54°36' W 005°54'0 0.0 1016.1 12.1 8.7
2015-Jul-31 04:00N 54°36' W 005°54'0 0.0 1017.3 11.9 9.3
2015-Jul-31 00:00N 54°36' W 005°54'0 0.0 1018.6 11.910.3
2015-Jul-30 16:00N 54°36' W 005°54'0 0.0 1020.3 16.4 6.5
2015-Jul-30 14:00N 54°36' W 005°54'0 0.0 1020.3 16.2 5.2
2015-Jul-30 12:00N 54°36' W 005°54'0 0.0 1020.4 14.3 5.0
2015-Jul-30 08:00N 54°36' W 005°54'0 0.0 1019.8 11.7 6.8
2015-Jul-30 05:00N 54°36' W 005°54'0 0.0 1019.5 9.9 6.0
2015-Jul-30 04:00N 54°36' W 005°54'0 0.0 1019.4 10.1 6.0
2015-Jul-30 02:00N 54°36' W 005°54'0 0.0 1019.0 10.4 5.2
2015-Jul-30 01:00N 54°36' W 005°54'0 0.0 1018.8 10.5 5.6
2015-Jul-29 22:00N 54°36' W 005°54'0 0.0 1017.6 11.8 7.0
2015-Jul-29 20:00N 54°36' W 005°54'0 0.0 1016.6 12.1 6.5
2015-Jul-29 17:00N 54°36' W 005°54'0 0.0 1015.7 13.6 6.3
2015-Jul-29 14:00N 54°36' W 005°54'0 0.0 1014.3 14.6 7.5
2015-Jul-29 08:00N 54°36' W 005°54'0 0.0 1011.5 11.8 8.4
2015-Jul-29 07:00N 54°36' W 005°54'0 0.0 1011.0 11.0 8.3
2015-Jul-29 03:00N 54°36' W 005°54'0 0.0 1009.7 10.8 8.5
2015-Jul-28 22:00N 54°36' W 005°54'0 0.0 1006.9 11.7 9.6
2015-Jul-28 18:00N 54°36' W 005°54'0 0.0 1005.4 14.2 9.1
2015-Jul-28 16:00N 54°36' W 005°54'0 0.0 1005.6 13.4 8.3
2015-Jul-28 15:00N 54°36' W 005°54'0 0.0 1005.4 14.6 9.0
2015-Jul-28 11:00N 54°36' W 005°54'0 0.0 1004.9 12.5 8.2
2015-Jul-28 09:00N 54°36' W 005°54'0 0.0 1004.2 12.3 9.0
2015-Jul-28 07:00N 54°36' W 005°54'0 0.0 1003.9 11.0 9.0
2015-Jul-28 04:00N 54°36' W 005°54'0 0.0 1003.1 10.7 9.1
2015-Jul-28 03:00N 54°36' W 005°54'0 0.0 1002.9 11.1 9.5
2015-Jul-28 02:00N 54°36' W 005°54'0 0.0 1002.7 11.1 9.8
2015-Jul-28 01:00N 54°36' W 005°54'0 0.0 1002.3 11.510.1
2015-Jul-27 20:00N 54°36' W 005°54'0 0.0 1000.3 12.511.1
2015-Jul-27 17:00N 54°36' W 005°54'0 0.0 999.2 13.212.0
2015-Jul-27 16:00N 54°36' W 005°54'0 0.0 998.9 13.512.4
2015-Jul-27 14:00N 54°36' W 005°54'0 0.0 998.6 13.012.1
2015-Jul-27 12:00N 54°36' W 005°54'0 0.0 997.9 12.811.6
2015-Jul-27 08:00N 54°36' W 005°54'0 0.0 996.8 12.911.2
2015-Jul-27 05:00N 54°36' W 005°54'0 0.0 995.8 12.911.1
2015-Jul-27 03:00N 54°36' W 005°54'0 0.0 995.6 12.811.2
2015-Jul-27 02:00N 54°36' W 005°54'0 0.0 995.5 12.511.0
2015-Jul-27 00:00N 54°36' W 005°54'0 0.0 995.1 12.311.1
2015-Jul-26 23:00N 54°36' W 005°54'0 0.0 995.0 12.311.2
2015-Jul-26 22:00N 54°36' W 005°54'0 0.0 994.7 12.311.0
2015-Jul-26 21:00N 54°36' W 005°54'0 0.0 994.5 12.611.3
2015-Jul-26 20:00N 54°36' W 005°54'0 0.0 994.3 12.911.5
2015-Jul-26 18:00N 54°36' W 005°54'0 0.0 994.8 12.611.1
2015-Jul-26 17:00N 54°36' W 005°54'0 0.0 995.3 12.410.9
2015-Jul-26 16:00N 54°36' W 005°54'0 0.0 995.9 12.610.1
2015-Jul-26 15:00N 54°36' W 005°54'0 0.0 996.5 12.210.5
2015-Jul-26 14:00N 54°36' W 005°54'0 0.0 997.2 12.210.7
2015-Jul-26 13:00N 54°36' W 005°54'0 0.0 998.7 11.810.0
2015-Jul-26 10:00N 54°36' W 005°54'0 0.0 1001.9 11.6 9.6
2015-Jul-26 09:00N 54°36' W 005°54'0 0.0 1002.2 11.9 9.6
2015-Jul-26 07:00N 54°36' W 005°54'0 0.0 1004.4 12.6 9.8
2015-Jul-26 02:00N 54°36' W 005°54'0 0.0 1010.0 11.4 9.8
2015-Jul-26 01:00N 54°36' W 005°54'0 0.0 1011.1 12.4 9.4
2015-Jul-25 23:00N 54°36' W 005°54'0 0.0 1013.4 12.3 7.4
2015-Jul-25 22:00N 54°36' W 005°54'0 0.0 1014.3 13.2 7.2
2015-Jul-25 18:00N 54°36' W 005°54'0 0.0 1015.2 14.1 7.6
2015-Jul-25 17:00N 54°36' W 005°54'0 0.0 1015.5 16.1 7.8
2015-Jul-25 12:00N 54°36' W 005°54'0 0.0 1016.1 15.1 5.5
2015-Jul-25 11:00N 54°36' W 005°54'0 0.0 1016.3 15.3 5.8
2015-Jul-25 10:00N 54°36' W 005°54'0 0.0 1016.2 14.5 5.3
2015-Jul-25 09:00N 54°36' W 005°54'0 0.0 1016.2 13.1 6.9
2015-Jul-25 08:00N 54°36' W 005°54'0 0.0 1015.9 12.6 7.4
2015-Jul-25 07:00N 54°36' W 005°54'0 0.0 1015.8 11.2 7.1
2015-Jul-25 06:00N 54°36' W 005°54'0 0.0 1015.6 10.7 7.1
2015-Jul-25 03:00N 54°36' W 005°54'0 0.0 1014.8 10.6 6.8
2015-Jul-24 22:00N 54°36' W 005°54'0 0.0 1014.7 11.9 7.1
2015-Jul-24 20:00N 54°36' W 005°54'0 0.0 1013.7 13.6 7.1
2015-Jul-23 18:00N 54°36' W 005°54'0 0.0 1013.6 16.2 6.5
2015-Jul-23 16:00N 54°36' W 005°54'0 0.0 1013.5 16.6 5.7
2015-Jul-23 15:00N 54°36' W 005°54'0 0.0 1013.8 16.2 5.7
2015-Jul-23 14:00N 54°36' W 005°54'0 0.0 1014.0 15.9 6.9
2015-Jul-23 13:00N 54°36' W 005°54'0 0.0 1014.2 15.5 6.0
2015-Jul-23 11:00N 54°36' W 005°54'0 0.0 1014.4 15.5 6.2
2015-Jul-23 10:00N 54°36' W 005°54'0 0.0 1014.8 14.3 6.9
2015-Jul-23 09:00N 54°36' W 005°54'0 0.0 1014.8 14.1 7.4
2015-Jul-23 06:00N 54°36' W 005°54'0 0.0 1014.7 10.4 7.6
2015-Jul-23 04:00N 54°36' W 005°54'0 0.0 1014.3 10.0 7.5
2015-Jul-23 01:00N 54°36' W 005°54'0 0.0 1014.6 11.0 7.9
2015-Jul-22 20:00N 54°36' W 005°54'0 0.0 1014.0 14.1 7.4
2015-Jul-22 19:00N 54°36' W 005°54'0 0.0 1013.7 15.7 7.6
2015-Jul-22 15:00N 54°36' W 005°54'9 2.3 1013.2 15.6 6.6
2015-Jul-22 11:00N 54°42' W 005°42'1212.5 1012.4 13.3 7.8
2015-Jul-22 10:00N 54°54' W 005°48'38 9.6 1012.3 13.1 7.4
2015-Jul-22 06:00N 55°24' W 006°30'24 7.9 1011.0 12.0 8.8
2015-Jul-22 03:00N 55°36' W 007°06'27 9.0 1010.6 12.5 8.2
2015-Jul-22 00:00N 55°36' W 007°54'1010.2 1010.6 12.7 7.8
2015-Jul-21 23:00N 55°36' W 008°12'6 6.0 1010.4 12.5 7.8
2015-Jul-21 22:00N 55°42' W 008°12'10 5.1 1009.3 12.3 8.2
2015-Jul-21 20:00N 55°42' W 007°54'30 7.6 1008.5 12.4 7.7
2015-Jul-21 16:00N 55°42' W 007°00'   1007.4 12.5 8.8

Dump ship's entire track history